sensor_id;sensor_type;location;lat;lon;timestamp;pressure;altitude;pressure_sealevel;temperature;humidity
79378;BME280;68959;53.132;17.984;2023-04-08T00:00:19;101612.67;;;7.56;83.48
79378;BME280;68959;53.132;17.984;2023-04-08T00:03:06;101614.60;;;7.58;83.47
79378;BME280;68959;53.132;17.984;2023-04-08T00:05:33;101611.45;;;7.56;83.57
79378;BME280;68959;53.132;17.984;2023-04-08T00:07:59;101613.79;;;7.51;83.49
79378;BME280;68959;53.132;17.984;2023-04-08T00:10:26;101619.46;;;7.48;83.49
79378;BME280;68959;53.132;17.984;2023-04-08T00:12:53;101617.39;;;7.43;83.69
79378;BME280;68959;53.132;17.984;2023-04-08T00:15:21;101618.62;;;7.40;83.47
79378;BME280;68959;53.132;17.984;2023-04-08T00:17:47;101621.36;;;7.38;83.65
79378;BME280;68959;53.132;17.984;2023-04-08T00:20:14;101623.30;;;7.36;83.65
79378;BME280;68959;53.132;17.984;2023-04-08T00:22:40;101627.36;;;7.35;83.52
79378;BME280;68959;53.132;17.984;2023-04-08T00:25:08;101627.13;;;7.34;83.56
79378;BME280;68959;53.132;17.984;2023-04-08T00:27:35;101630.27;;;7.31;83.66
79378;BME280;68959;53.132;17.984;2023-04-08T00:30:02;101631.29;;;7.28;83.59
79378;BME280;68959;53.132;17.984;2023-04-08T00:32:29;101637.73;;;7.23;84.08
79378;BME280;68959;53.132;17.984;2023-04-08T00:34:55;101639.22;;;7.18;83.67
79378;BME280;68959;53.132;17.984;2023-04-08T00:37:22;101638.73;;;7.15;83.85
79378;BME280;68959;53.132;17.984;2023-04-08T00:39:50;101639.55;;;7.11;84.12
79378;BME280;68959;53.132;17.984;2023-04-08T00:42:19;101640.60;;;7.07;83.96
79378;BME280;68959;53.132;17.984;2023-04-08T00:44:48;101641.02;;;7.03;84.29
79378;BME280;68959;53.132;17.984;2023-04-08T00:47:16;101646.64;;;6.99;84.43
79378;BME280;68959;53.132;17.984;2023-04-08T00:49:43;101647.19;;;6.95;84.22
79378;BME280;68959;53.132;17.984;2023-04-08T00:52:10;101651.56;;;6.93;84.20
79378;BME280;68959;53.132;17.984;2023-04-08T00:54:37;101647.77;;;6.92;84.24
79378;BME280;68959;53.132;17.984;2023-04-08T00:57:05;101651.18;;;6.88;84.37
79378;BME280;68959;53.132;17.984;2023-04-08T00:59:32;101654.89;;;6.86;84.43
79378;BME280;68959;53.132;17.984;2023-04-08T01:02:11;101658.78;;;6.80;84.46
79378;BME280;68959;53.132;17.984;2023-04-08T01:07:24;101665.04;;;6.70;84.37
79378;BME280;68959;53.132;17.984;2023-04-08T01:09:55;101665.29;;;6.65;84.30
79378;BME280;68959;53.132;17.984;2023-04-08T01:12:28;101668.98;;;6.62;84.48
79378;BME280;68959;53.132;17.984;2023-04-08T01:15:03;101667.52;;;6.60;84.60
79378;BME280;68959;53.132;17.984;2023-04-08T01:17:31;101671.95;;;6.55;84.59
79378;BME280;68959;53.132;17.984;2023-04-08T01:20:01;101672.63;;;6.49;84.65
79378;BME280;68959;53.132;17.984;2023-04-08T01:25:14;101678.05;;;6.34;84.57
79378;BME280;68959;53.132;17.984;2023-04-08T01:27:42;101680.59;;;6.28;84.58
79378;BME280;68959;53.132;17.984;2023-04-08T01:30:11;101680.95;;;6.23;84.81
79378;BME280;68959;53.132;17.984;2023-04-08T01:32:39;101682.63;;;6.19;84.92
79378;BME280;68959;53.132;17.984;2023-04-08T01:35:09;101683.66;;;6.14;84.81
79378;BME280;68959;53.132;17.984;2023-04-08T01:37:36;101683.39;;;6.10;84.82
79378;BME280;68959;53.132;17.984;2023-04-08T01:40:06;101688.05;;;6.05;84.74
79378;BME280;68959;53.132;17.984;2023-04-08T01:42:36;101692.39;;;5.99;84.89
79378;BME280;68959;53.132;17.984;2023-04-08T01:45:05;101684.41;;;5.92;85.05
79378;BME280;68959;53.132;17.984;2023-04-08T01:47:33;101685.11;;;5.88;85.35
79378;BME280;68959;53.132;17.984;2023-04-08T01:50:01;101688.05;;;5.83;85.26
79378;BME280;68959;53.132;17.984;2023-04-08T01:52:29;101690.77;;;5.80;85.61
79378;BME280;68959;53.132;17.984;2023-04-08T01:54:56;101694.79;;;5.78;85.22
79378;BME280;68959;53.132;17.984;2023-04-08T01:57:27;101696.79;;;5.74;85.46
79378;BME280;68959;53.132;17.984;2023-04-08T01:59:59;101698.17;;;5.72;85.43
79378;BME280;68959;53.132;17.984;2023-04-08T02:02:27;101701.91;;;5.69;85.48
79378;BME280;68959;53.132;17.984;2023-04-08T02:04:55;101702.30;;;5.65;85.57
79378;BME280;68959;53.132;17.984;2023-04-08T02:07:22;101704.80;;;5.60;85.81
79378;BME280;68959;53.132;17.984;2023-04-08T02:09:49;101706.66;;;5.55;85.76
79378;BME280;68959;53.132;17.984;2023-04-08T02:12:16;101707.73;;;5.51;85.86
79378;BME280;68959;53.132;17.984;2023-04-08T02:14:44;101710.16;;;5.46;85.60
79378;BME280;68959;53.132;17.984;2023-04-08T02:17:13;101710.37;;;5.43;85.65
79378;BME280;68959;53.132;17.984;2023-04-08T02:22:39;101715.81;;;5.39;85.48
79378;BME280;68959;53.132;17.984;2023-04-08T02:25:12;101718.02;;;5.36;85.50
79378;BME280;68959;53.132;17.984;2023-04-08T02:27:39;101718.36;;;5.33;85.57
79378;BME280;68959;53.132;17.984;2023-04-08T02:30:11;101723.71;;;5.31;85.49
79378;BME280;68959;53.132;17.984;2023-04-08T02:32:39;101724.45;;;5.25;85.52
79378;BME280;68959;53.132;17.984;2023-04-08T02:35:06;101723.44;;;5.20;85.55
79378;BME280;68959;53.132;17.984;2023-04-08T02:37:34;101723.98;;;5.16;85.55
79378;BME280;68959;53.132;17.984;2023-04-08T02:40:02;101726.44;;;5.10;85.49
79378;BME280;68959;53.132;17.984;2023-04-08T02:42:29;101728.92;;;5.05;85.57
79378;BME280;68959;53.132;17.984;2023-04-08T02:44:56;101729.98;;;4.99;85.44
79378;BME280;68959;53.132;17.984;2023-04-08T02:47:23;101736.17;;;4.95;85.50
79378;BME280;68959;53.132;17.984;2023-04-08T02:49:50;101735.30;;;4.89;85.52
79378;BME280;68959;53.132;17.984;2023-04-08T02:52:19;101739.29;;;4.82;85.58
79378;BME280;68959;53.132;17.984;2023-04-08T02:54:45;101742.91;;;4.76;85.69
79378;BME280;68959;53.132;17.984;2023-04-08T02:57:12;101743.70;;;4.70;85.59
79378;BME280;68959;53.132;17.984;2023-04-08T02:59:39;101752.70;;;4.65;85.66
79378;BME280;68959;53.132;17.984;2023-04-08T03:02:06;101753.74;;;4.59;85.61
79378;BME280;68959;53.132;17.984;2023-04-08T03:04:33;101752.69;;;4.55;85.67
79378;BME280;68959;53.132;17.984;2023-04-08T03:06:59;101755.25;;;4.52;85.67
79378;BME280;68959;53.132;17.984;2023-04-08T03:09:26;101757.42;;;4.48;85.79
79378;BME280;68959;53.132;17.984;2023-04-08T03:11:52;101757.20;;;4.44;86.12
79378;BME280;68959;53.132;17.984;2023-04-08T03:14:20;101762.38;;;4.39;86.11
79378;BME280;68959;53.132;17.984;2023-04-08T03:16:47;101763.85;;;4.36;86.19
79378;BME280;68959;53.132;17.984;2023-04-08T03:19:14;101763.70;;;4.34;86.25
79378;BME280;68959;53.132;17.984;2023-04-08T03:21:40;101764.13;;;4.32;86.25
79378;BME280;68959;53.132;17.984;2023-04-08T03:24:07;101769.23;;;4.33;86.03
79378;BME280;68959;53.132;17.984;2023-04-08T03:26:34;101766.66;;;4.31;86.05
79378;BME280;68959;53.132;17.984;2023-04-08T03:29:00;101765.59;;;4.28;85.98
79378;BME280;68959;53.132;17.984;2023-04-08T03:31:27;101763.43;;;4.24;85.90
79378;BME280;68959;53.132;17.984;2023-04-08T03:33:53;101765.94;;;4.20;85.87
79378;BME280;68959;53.132;17.984;2023-04-08T03:36:20;101768.52;;;4.15;85.93
79378;BME280;68959;53.132;17.984;2023-04-08T03:38:47;101773.55;;;4.09;85.94
79378;BME280;68959;53.132;17.984;2023-04-08T03:41:13;101775.60;;;4.04;85.90
79378;BME280;68959;53.132;17.984;2023-04-08T03:43:40;101774.65;;;3.99;85.97
79378;BME280;68959;53.132;17.984;2023-04-08T03:46:06;101775.80;;;3.96;86.06
79378;BME280;68959;53.132;17.984;2023-04-08T03:48:33;101776.89;;;3.94;86.14
79378;BME280;68959;53.132;17.984;2023-04-08T03:51:00;101779.92;;;3.93;86.19
79378;BME280;68959;53.132;17.984;2023-04-08T03:53:26;101781.04;;;3.91;86.35
79378;BME280;68959;53.132;17.984;2023-04-08T03:55:55;101782.11;;;3.89;86.11
79378;BME280;68959;53.132;17.984;2023-04-08T03:58:22;101788.52;;;3.87;86.29
79378;BME280;68959;53.132;17.984;2023-04-08T04:00:49;101791.73;;;3.85;86.22
79378;BME280;68959;53.132;17.984;2023-04-08T04:03:16;101794.66;;;3.80;86.36
79378;BME280;68959;53.132;17.984;2023-04-08T04:05:42;101796.29;;;3.78;86.44
79378;BME280;68959;53.132;17.984;2023-04-08T04:08:09;101790.27;;;3.77;86.44
79378;BME280;68959;53.132;17.984;2023-04-08T04:10:36;101797.32;;;3.75;86.54
79378;BME280;68959;53.132;17.984;2023-04-08T04:13:02;101798.38;;;3.76;86.36
79378;BME280;68959;53.132;17.984;2023-04-08T04:15:29;101804.20;;;3.77;86.37
79378;BME280;68959;53.132;17.984;2023-04-08T04:17:56;101802.31;;;3.79;86.23
79378;BME280;68959;53.132;17.984;2023-04-08T04:20:22;101804.54;;;3.79;86.20
79378;BME280;68959;53.132;17.984;2023-04-08T04:22:51;101805.91;;;3.75;86.14
79378;BME280;68959;53.132;17.984;2023-04-08T04:25:18;101811.10;;;3.72;86.14
79378;BME280;68959;53.132;17.984;2023-04-08T04:27:44;101813.02;;;3.69;85.85
79378;BME280;68959;53.132;17.984;2023-04-08T04:30:11;101815.95;;;3.66;85.85
79378;BME280;68959;53.132;17.984;2023-04-08T04:32:41;101823.73;;;3.66;85.88
79378;BME280;68959;53.132;17.984;2023-04-08T04:35:09;101820.80;;;3.66;85.87
79378;BME280;68959;53.132;17.984;2023-04-08T04:37:36;101826.27;;;3.68;85.54
79378;BME280;68959;53.132;17.984;2023-04-08T04:40:03;101821.46;;;3.68;85.58
79378;BME280;68959;53.132;17.984;2023-04-08T04:42:31;101832.97;;;3.64;85.28
79378;BME280;68959;53.132;17.984;2023-04-08T04:44:58;101834.94;;;3.59;85.21
79378;BME280;68959;53.132;17.984;2023-04-08T04:47:25;101836.42;;;3.53;85.15
79378;BME280;68959;53.132;17.984;2023-04-08T04:49:52;101838.42;;;3.50;84.91
79378;BME280;68959;53.132;17.984;2023-04-08T04:52:18;101839.41;;;3.48;85.06
79378;BME280;68959;53.132;17.984;2023-04-08T04:54:45;101840.98;;;3.50;85.13
79378;BME280;68959;53.132;17.984;2023-04-08T04:57:12;101844.12;;;3.53;85.00
79378;BME280;68959;53.132;17.984;2023-04-08T04:59:38;101846.88;;;3.58;85.07
79378;BME280;68959;53.132;17.984;2023-04-08T05:02:05;101852.16;;;3.65;85.17
79378;BME280;68959;53.132;17.984;2023-04-08T05:04:31;101849.61;;;3.72;85.02
79378;BME280;68959;53.132;17.984;2023-04-08T05:06:58;101853.48;;;3.79;85.33
79378;BME280;68959;53.132;17.984;2023-04-08T05:09:25;101851.11;;;3.88;85.32
79378;BME280;68959;53.132;17.984;2023-04-08T05:11:52;101850.52;;;3.97;85.38
79378;BME280;68959;53.132;17.984;2023-04-08T05:14:19;101859.21;;;4.07;85.17
79378;BME280;68959;53.132;17.984;2023-04-08T05:16:45;101857.60;;;4.12;84.78
79378;BME280;68959;53.132;17.984;2023-04-08T05:19:12;101857.08;;;4.15;84.36
79378;BME280;68959;53.132;17.984;2023-04-08T05:21:38;101864.23;;;4.24;84.47
79378;BME280;68959;53.132;17.984;2023-04-08T05:24:05;101863.31;;;4.32;84.34
79378;BME280;68959;53.132;17.984;2023-04-08T05:26:32;101864.33;;;4.41;84.14
79378;BME280;68959;53.132;17.984;2023-04-08T05:28:58;101866.48;;;4.48;84.18
79378;BME280;68959;53.132;17.984;2023-04-08T05:31:25;101865.55;;;4.54;84.11
79378;BME280;68959;53.132;17.984;2023-04-08T05:33:52;101873.05;;;4.63;84.06
79378;BME280;68959;53.132;17.984;2023-04-08T05:36:19;101869.77;;;4.72;84.03
79378;BME280;68959;53.132;17.984;2023-04-08T05:38:45;101873.41;;;4.83;84.05
79378;BME280;68959;53.132;17.984;2023-04-08T05:41:12;101877.59;;;4.97;83.82
79378;BME280;68959;53.132;17.984;2023-04-08T05:43:38;101874.57;;;5.07;83.58
79378;BME280;68959;53.132;17.984;2023-04-08T05:46:06;101877.02;;;5.14;83.70
79378;BME280;68959;53.132;17.984;2023-04-08T05:48:33;101876.51;;;5.26;83.71
79378;BME280;68959;53.132;17.984;2023-04-08T05:51:01;101875.34;;;5.37;83.58
79378;BME280;68959;53.132;17.984;2023-04-08T05:53:28;101879.57;;;5.48;83.56
79378;BME280;68959;53.132;17.984;2023-04-08T05:55:54;101881.98;;;5.60;83.34
79378;BME280;68959;53.132;17.984;2023-04-08T05:58:21;101882.77;;;5.73;83.19
79378;BME280;68959;53.132;17.984;2023-04-08T06:00:48;101885.19;;;5.84;82.85
79378;BME280;68959;53.132;17.984;2023-04-08T06:03:14;101886.20;;;5.97;82.58
79378;BME280;68959;53.132;17.984;2023-04-08T06:05:41;101885.17;;;6.04;82.07
79378;BME280;68959;53.132;17.984;2023-04-08T06:08:08;101891.46;;;6.08;81.62
79378;BME280;68959;53.132;17.984;2023-04-08T06:10:35;101891.42;;;6.12;81.67
79378;BME280;68959;53.132;17.984;2023-04-08T06:13:01;101893.60;;;6.20;81.36
79378;BME280;68959;53.132;17.984;2023-04-08T06:15:28;101902.54;;;6.26;81.08
79378;BME280;68959;53.132;17.984;2023-04-08T06:17:54;101904.23;;;6.36;80.56
79378;BME280;68959;53.132;17.984;2023-04-08T06:20:21;101904.55;;;6.69;80.94
79378;BME280;68959;53.132;17.984;2023-04-08T06:22:47;101907.53;;;7.14;80.36
79378;BME280;68959;53.132;17.984;2023-04-08T06:25:14;101907.41;;;7.63;79.15
79378;BME280;68959;53.132;17.984;2023-04-08T06:27:41;101909.12;;;8.03;77.47
79378;BME280;68959;53.132;17.984;2023-04-08T06:30:08;101913.30;;;8.24;75.07
79378;BME280;68959;53.132;17.984;2023-04-08T06:32:35;101917.30;;;8.34;75.10
79378;BME280;68959;53.132;17.984;2023-04-08T06:35:01;101917.64;;;8.57;75.39
79378;BME280;68959;53.132;17.984;2023-04-08T06:37:28;101921.41;;;8.82;73.87
79378;BME280;68959;53.132;17.984;2023-04-08T06:39:55;101921.19;;;8.97;72.46
79378;BME280;68959;53.132;17.984;2023-04-08T06:42:21;101921.29;;;9.14;72.76
79378;BME280;68959;53.132;17.984;2023-04-08T06:45:01;101924.01;;;9.46;73.50
79378;BME280;68959;53.132;17.984;2023-04-08T06:47:28;101919.72;;;9.72;70.55
79378;BME280;68959;53.132;17.984;2023-04-08T06:49:55;101925.52;;;9.84;70.03
79378;BME280;68959;53.132;17.984;2023-04-08T06:52:21;101927.73;;;10.05;69.43
79378;BME280;68959;53.132;17.984;2023-04-08T06:54:48;101926.01;;;10.31;69.59
79378;BME280;68959;53.132;17.984;2023-04-08T06:57:14;101932.07;;;10.47;67.30
79378;BME280;68959;53.132;17.984;2023-04-08T06:59:41;101928.65;;;10.60;66.57
79378;BME280;68959;53.132;17.984;2023-04-08T07:02:07;101931.39;;;10.73;67.74
79378;BME280;68959;53.132;17.984;2023-04-08T07:04:34;101932.57;;;11.14;68.12
79378;BME280;68959;53.132;17.984;2023-04-08T07:07:00;101941.42;;;11.59;65.54
79378;BME280;68959;53.132;17.984;2023-04-08T07:09:27;101941.88;;;11.89;66.06
79378;BME280;68959;53.132;17.984;2023-04-08T07:11:54;101943.63;;;12.24;64.25
79378;BME280;68959;53.132;17.984;2023-04-08T07:14:21;101943.65;;;12.55;64.49
79378;BME280;68959;53.132;17.984;2023-04-08T07:16:47;101943.61;;;12.96;63.48
79378;BME280;68959;53.132;17.984;2023-04-08T07:19:14;101942.08;;;13.32;61.81
79378;BME280;68959;53.132;17.984;2023-04-08T07:21:41;101944.72;;;13.55;60.57
79378;BME280;68959;53.132;17.984;2023-04-08T07:24:07;101946.70;;;13.64;58.77
79378;BME280;68959;53.132;17.984;2023-04-08T07:26:34;101953.48;;;13.33;57.29
79378;BME280;68959;53.132;17.984;2023-04-08T07:29:00;101952.77;;;13.45;57.80
79378;BME280;68959;53.132;17.984;2023-04-08T07:31:27;101957.38;;;13.44;58.54
79378;BME280;68959;53.132;17.984;2023-04-08T07:33:54;101957.71;;;13.75;56.96
79378;BME280;68959;53.132;17.984;2023-04-08T07:36:20;101961.30;;;13.48;56.79
79378;BME280;68959;53.132;17.984;2023-04-08T07:38:47;101963.14;;;12.79;57.88
79378;BME280;68959;53.132;17.984;2023-04-08T07:41:14;101969.18;;;12.34;59.83
79378;BME280;68959;53.132;17.984;2023-04-08T07:43:41;101964.98;;;12.01;62.08
79378;BME280;68959;53.132;17.984;2023-04-08T07:46:07;101967.95;;;11.96;62.71
79378;BME280;68959;53.132;17.984;2023-04-08T07:48:34;101968.67;;;11.93;61.22
79378;BME280;68959;53.132;17.984;2023-04-08T07:51:06;101968.87;;;11.48;59.70
79378;BME280;68959;53.132;17.984;2023-04-08T07:53:33;101976.64;;;11.14;61.63
79378;BME280;68959;53.132;17.984;2023-04-08T07:56:00;101976.59;;;11.14;61.27
79378;BME280;68959;53.132;17.984;2023-04-08T07:58:29;101974.52;;;11.21;62.91
79378;BME280;68959;53.132;17.984;2023-04-08T08:00:57;101972.49;;;11.47;62.33
79378;BME280;68959;53.132;17.984;2023-04-08T08:03:24;101972.76;;;11.70;61.64
79378;BME280;68959;53.132;17.984;2023-04-08T08:05:51;101977.42;;;12.05;60.91
79378;BME280;68959;53.132;17.984;2023-04-08T08:08:18;101977.15;;;12.33;58.59
79378;BME280;68959;53.132;17.984;2023-04-08T08:10:44;101980.61;;;12.41;57.55
79378;BME280;68959;53.132;17.984;2023-04-08T08:13:11;101982.58;;;12.02;58.78
79378;BME280;68959;53.132;17.984;2023-04-08T08:15:42;101986.18;;;11.92;59.96
79378;BME280;68959;53.132;17.984;2023-04-08T08:18:09;101986.51;;;12.02;59.72
79378;BME280;68959;53.132;17.984;2023-04-08T08:20:36;101987.77;;;12.18;59.33
79378;BME280;68959;53.132;17.984;2023-04-08T08:23:02;101990.80;;;12.27;59.90
79378;BME280;68959;53.132;17.984;2023-04-08T08:25:29;101996.18;;;12.37;58.37
79378;BME280;68959;53.132;17.984;2023-04-08T08:27:56;101993.64;;;12.27;59.08
79378;BME280;68959;53.132;17.984;2023-04-08T08:30:22;101995.49;;;12.06;57.86
79378;BME280;68959;53.132;17.984;2023-04-08T08:32:49;101997.19;;;11.85;58.87
79378;BME280;68959;53.132;17.984;2023-04-08T08:35:17;102004.04;;;11.96;59.88
79378;BME280;68959;53.132;17.984;2023-04-08T08:37:44;102004.16;;;12.50;57.86
79378;BME280;68959;53.132;17.984;2023-04-08T08:40:11;102006.49;;;12.13;54.06
79378;BME280;68959;53.132;17.984;2023-04-08T08:42:40;102009.60;;;11.63;56.04
79378;BME280;68959;53.132;17.984;2023-04-08T08:45:07;102012.21;;;11.38;57.45
79378;BME280;68959;53.132;17.984;2023-04-08T08:47:34;102014.57;;;11.49;57.11
79378;BME280;68959;53.132;17.984;2023-04-08T08:50:01;102013.91;;;12.68;55.84
79378;BME280;68959;53.132;17.984;2023-04-08T08:52:28;102009.59;;;14.91;51.69
79378;BME280;68959;53.132;17.984;2023-04-08T08:54:58;102008.79;;;15.35;48.59
79378;BME280;68959;53.132;17.984;2023-04-08T08:57:25;102014.83;;;14.60;50.58
79378;BME280;68959;53.132;17.984;2023-04-08T08:59:52;102019.50;;;14.11;52.58
79378;BME280;68959;53.132;17.984;2023-04-08T09:02:27;102021.37;;;13.66;52.70
79378;BME280;68959;53.132;17.984;2023-04-08T09:04:59;102023.35;;;13.45;55.39
79378;BME280;68959;53.132;17.984;2023-04-08T09:07:27;102024.43;;;13.47;53.93
79378;BME280;68959;53.132;17.984;2023-04-08T09:09:56;102029.59;;;13.38;52.27
79378;BME280;68959;53.132;17.984;2023-04-08T09:12:24;102028.77;;;13.17;51.74
79378;BME280;68959;53.132;17.984;2023-04-08T09:15:02;102029.88;;;13.17;51.47
79378;BME280;68959;53.132;17.984;2023-04-08T09:17:37;102020.63;;;14.54;49.99
79378;BME280;68959;53.132;17.984;2023-04-08T09:20:12;102026.65;;;14.42;50.35
79378;BME280;68959;53.132;17.984;2023-04-08T09:22:55;102023.44;;;14.10;48.69
79378;BME280;68959;53.132;17.984;2023-04-08T09:25:23;102030.60;;;13.92;50.41
79378;BME280;68959;53.132;17.984;2023-04-08T09:27:51;102029.96;;;14.00;51.97
79378;BME280;68959;53.132;17.984;2023-04-08T09:30:23;102031.90;;;14.22;50.20
79378;BME280;68959;53.132;17.984;2023-04-08T09:32:53;102033.34;;;15.01;50.10
79378;BME280;68959;53.132;17.984;2023-04-08T09:35:20;102035.48;;;15.71;49.12
79378;BME280;68959;53.132;17.984;2023-04-08T09:37:48;102035.31;;;15.72;47.27
79378;BME280;68959;53.132;17.984;2023-04-08T09:40:16;102041.13;;;15.16;45.57
79378;BME280;68959;53.132;17.984;2023-04-08T09:42:45;102037.86;;;14.66;48.59
79378;BME280;68959;53.132;17.984;2023-04-08T09:45:15;102040.53;;;14.66;49.03
79378;BME280;68959;53.132;17.984;2023-04-08T09:47:56;102042.78;;;14.68;48.45
79378;BME280;68959;53.132;17.984;2023-04-08T09:50:26;102044.73;;;14.84;49.73
79378;BME280;68959;53.132;17.984;2023-04-08T09:53:00;102042.70;;;15.09;49.46
79378;BME280;68959;53.132;17.984;2023-04-08T09:55:29;102039.77;;;15.34;46.65
79378;BME280;68959;53.132;17.984;2023-04-08T10:00:39;102035.67;;;16.13;47.29
79378;BME280;68959;53.132;17.984;2023-04-08T10:05:52;102017.48;;;20.41;43.31
79378;BME280;68959;53.132;17.984;2023-04-08T10:08:19;102016.19;;;22.72;39.91
79378;BME280;68959;53.132;17.984;2023-04-08T10:10:46;102009.45;;;24.33;37.18
79378;BME280;68959;53.132;17.984;2023-04-08T10:13:13;102009.38;;;25.61;36.23
79378;BME280;68959;53.132;17.984;2023-04-08T10:15:40;102001.40;;;26.45;33.04
79378;BME280;68959;53.132;17.984;2023-04-08T10:23:11;101993.89;;;28.80;31.67
79378;BME280;68959;53.132;17.984;2023-04-08T10:25:43;101989.46;;;29.67;30.72
79378;BME280;68959;53.132;17.984;2023-04-08T10:33:10;101977.99;;;31.33;27.82
79378;BME280;68959;53.132;17.984;2023-04-08T10:35:41;101972.38;;;31.85;25.21
79378;BME280;68959;53.132;17.984;2023-04-08T10:38:08;101968.55;;;31.91;24.38
79378;BME280;68959;53.132;17.984;2023-04-08T10:40:36;101970.98;;;31.90;22.73
79378;BME280;68959;53.132;17.984;2023-04-08T10:43:04;101971.73;;;31.78;23.39
79378;BME280;68959;53.132;17.984;2023-04-08T10:45:31;101969.40;;;32.11;23.63
79378;BME280;68959;53.132;17.984;2023-04-08T10:48:15;101972.46;;;32.58;22.52
79378;BME280;68959;53.132;17.984;2023-04-08T10:50:57;101967.52;;;33.17;22.20
79378;BME280;68959;53.132;17.984;2023-04-08T10:53:31;101966.62;;;33.79;21.01
79378;BME280;68959;53.132;17.984;2023-04-08T10:56:03;101965.57;;;34.25;20.05
79378;BME280;68959;53.132;17.984;2023-04-08T10:58:32;101961.60;;;34.38;18.35
79378;BME280;68959;53.132;17.984;2023-04-08T11:01:06;101960.80;;;34.20;19.12
79378;BME280;68959;53.132;17.984;2023-04-08T11:03:34;101959.25;;;34.68;18.06
79378;BME280;68959;53.132;17.984;2023-04-08T11:06:02;101961.23;;;34.75;17.49
79378;BME280;68959;53.132;17.984;2023-04-08T11:08:30;101962.09;;;34.59;17.03
79378;BME280;68959;53.132;17.984;2023-04-08T11:11:01;101958.35;;;34.66;17.10
79378;BME280;68959;53.132;17.984;2023-04-08T11:13:29;101961.17;;;34.59;16.86
79378;BME280;68959;53.132;17.984;2023-04-08T11:15:59;101959.02;;;34.76;16.79
79378;BME280;68959;53.132;17.984;2023-04-08T11:18:26;101955.33;;;34.86;15.84
79378;BME280;68959;53.132;17.984;2023-04-08T11:20:54;101956.91;;;34.62;15.79
79378;BME280;68959;53.132;17.984;2023-04-08T11:23:20;101955.63;;;34.69;15.85
79378;BME280;68959;53.132;17.984;2023-04-08T11:25:49;101955.34;;;34.88;15.95
79378;BME280;68959;53.132;17.984;2023-04-08T11:28:16;101954.05;;;35.35;16.10
79378;BME280;68959;53.132;17.984;2023-04-08T11:30:44;101950.62;;;35.88;14.98
79378;BME280;68959;53.132;17.984;2023-04-08T11:33:12;101949.58;;;36.03;14.76
79378;BME280;68959;53.132;17.984;2023-04-08T11:35:40;101953.80;;;36.20;14.07
79378;BME280;68959;53.132;17.984;2023-04-08T11:38:08;101950.98;;;35.67;13.86
79378;BME280;68959;53.132;17.984;2023-04-08T11:40:35;101948.94;;;35.50;14.64
79378;BME280;68959;53.132;17.984;2023-04-08T11:43:12;101946.80;;;35.95;14.20
79378;BME280;68959;53.132;17.984;2023-04-08T11:45:41;101944.09;;;36.23;13.93
79378;BME280;68959;53.132;17.984;2023-04-08T11:48:12;101941.75;;;36.30;13.77
79378;BME280;68959;53.132;17.984;2023-04-08T11:50:40;101944.17;;;36.18;13.48
79378;BME280;68959;53.132;17.984;2023-04-08T11:53:21;101945.98;;;35.98;13.69
79378;BME280;68959;53.132;17.984;2023-04-08T11:55:50;101943.73;;;36.28;13.70
79378;BME280;68959;53.132;17.984;2023-04-08T11:58:17;101946.52;;;36.44;13.36
79378;BME280;68959;53.132;17.984;2023-04-08T12:00:44;101942.40;;;36.48;13.62
79378;BME280;68959;53.132;17.984;2023-04-08T12:03:14;101943.37;;;36.52;13.09
79378;BME280;68959;53.132;17.984;2023-04-08T12:05:41;101943.89;;;36.32;13.20
79378;BME280;68959;53.132;17.984;2023-04-08T12:08:08;101943.14;;;36.47;13.33
79378;BME280;68959;53.132;17.984;2023-04-08T12:10:34;101936.45;;;36.79;13.12
79378;BME280;68959;53.132;17.984;2023-04-08T12:13:01;101936.02;;;37.05;13.06
79378;BME280;68959;53.132;17.984;2023-04-08T12:15:27;101932.78;;;37.27;12.63
79378;BME280;68959;53.132;17.984;2023-04-08T12:17:54;101928.42;;;37.25;12.56
79378;BME280;68959;53.132;17.984;2023-04-08T12:20:21;101930.69;;;37.22;12.29
79378;BME280;68959;53.132;17.984;2023-04-08T12:22:47;101924.20;;;37.11;12.60
79378;BME280;68959;53.132;17.984;2023-04-08T12:25:14;101924.44;;;37.11;12.09
79378;BME280;68959;53.132;17.984;2023-04-08T12:27:41;101924.38;;;36.63;12.62
79378;BME280;68959;53.132;17.984;2023-04-08T12:30:09;101918.96;;;36.72;12.24
79378;BME280;68959;53.132;17.984;2023-04-08T12:32:36;101914.88;;;37.10;12.39
79378;BME280;68959;53.132;17.984;2023-04-08T12:35:03;101920.64;;;37.20;11.80
79378;BME280;68959;53.132;17.984;2023-04-08T12:37:30;101915.68;;;36.81;11.90
79378;BME280;68959;53.132;17.984;2023-04-08T12:39:59;101916.73;;;36.45;11.79
79378;BME280;68959;53.132;17.984;2023-04-08T12:42:26;101915.77;;;35.79;12.50
79378;BME280;68959;53.132;17.984;2023-04-08T12:44:53;101915.27;;;35.02;12.77
79378;BME280;68959;53.132;17.984;2023-04-08T12:47:20;101916.70;;;34.68;13.56
79378;BME280;68959;53.132;17.984;2023-04-08T12:49:46;101910.73;;;35.52;13.26
79378;BME280;68959;53.132;17.984;2023-04-08T12:52:13;101908.64;;;35.96;12.72
79378;BME280;68959;53.132;17.984;2023-04-08T12:54:39;101912.14;;;36.24;12.81
79378;BME280;68959;53.132;17.984;2023-04-08T12:57:06;101909.66;;;36.73;12.48
79378;BME280;68959;53.132;17.984;2023-04-08T12:59:33;101905.92;;;36.97;12.18
79378;BME280;68959;53.132;17.984;2023-04-08T13:01:59;101910.46;;;36.96;11.89
79378;BME280;68959;53.132;17.984;2023-04-08T13:04:26;101901.54;;;36.69;12.06
79378;BME280;68959;53.132;17.984;2023-04-08T13:06:52;101904.18;;;36.01;11.80
79378;BME280;68959;53.132;17.984;2023-04-08T13:09:19;101901.71;;;35.26;12.40
79378;BME280;68959;53.132;17.984;2023-04-08T13:11:46;101904.86;;;35.07;12.85